Time;durP1;ratioP1;P1;durP2;ratioP2;P2;SDS_P1;SDS_P2;PMS_P1;PMS_P2;Temp;Humidity;BMP_temperature;BMP_pressure;BME280_temperature;BME280_humidity;BME280_pressure;Samples;Min_cycle;Max_cycle;Signal;HPM_P1;HPM_P2
2023/03/16 00:00:16;;;;;;;7.90;4.40;;;6.00;51.60;;;;;;4946810;28;21416;-49
2023/03/16 00:02:43;;;;;;;7.30;4.03;;;6.00;51.60;;;;;;4945320;28;20062;-54
2023/03/16 00:05:13;;;;;;;7.40;4.18;;;6.00;51.60;;;;;;4946103;28;20054;-50
2023/03/16 00:07:42;;;;;;;9.10;4.20;;;6.00;51.60;;;;;;4945810;28;20062;-49
2023/03/16 00:10:11;;;;;;;9.95;4.20;;;6.00;51.70;;;;;;4945656;28;20139;-49
2023/03/16 00:12:38;;;;;;;8.05;4.18;;;5.90;51.60;;;;;;4942993;28;20484;-53
2023/03/16 00:15:07;;;;;;;10.98;4.13;;;5.90;51.60;;;;;;4945847;28;20059;-47
2023/03/16 00:17:35;;;;;;;10.52;4.43;;;6.00;51.70;;;;;;4946083;28;20062;-49
2023/03/16 00:20:05;;;;;;;7.45;3.33;;;6.00;51.70;;;;;;4943311;28;20060;-50
2023/03/16 00:22:33;;;;;;;8.48;4.32;;;5.90;51.70;;;;;;4944677;28;20070;-50
2023/03/16 00:25:01;;;;;;;6.85;3.85;;;5.90;51.70;;;;;;4945244;28;20046;-51
2023/03/16 00:27:29;;;;;;;8.00;3.78;;;5.90;51.70;;;;;;4943427;28;20047;-50
2023/03/16 00:29:57;;;;;;;7.97;4.07;;;5.90;51.80;;;;;;4944143;28;20051;-48
2023/03/16 00:32:26;;;;;;;9.25;4.22;;;5.90;51.80;;;;;;4944105;28;20077;-49
2023/03/16 00:34:54;;;;;;;7.93;4.28;;;5.90;51.80;;;;;;4943876;28;20055;-48
2023/03/16 00:37:23;;;;;;;7.13;4.20;;;5.90;51.80;;;;;;4945152;28;20502;-49
2023/03/16 00:39:51;;;;;;;9.45;4.57;;;5.90;51.80;;;;;;4944432;28;20062;-49
2023/03/16 00:42:20;;;;;;;8.80;3.95;;;5.90;51.80;;;;;;4943945;28;20062;-51
2023/03/16 00:44:47;;;;;;;10.52;4.32;;;5.90;51.80;;;;;;4944505;28;20058;-51
2023/03/16 00:47:15;;;;;;;10.18;4.95;;;5.90;51.80;;;;;;4944784;28;20050;-49
2023/03/16 00:49:43;;;;;;;8.60;4.32;;;5.90;51.80;;;;;;4944400;28;20063;-48
2023/03/16 00:52:13;;;;;;;10.20;4.68;;;5.80;51.70;;;;;;4942787;28;20050;-48
2023/03/16 00:54:42;;;;;;;8.10;4.72;;;5.80;51.70;;;;;;4944562;28;20506;-49
2023/03/16 00:57:11;;;;;;;7.38;4.30;;;5.80;51.80;;;;;;4942701;28;20055;-53
2023/03/16 00:59:40;;;;;;;9.07;4.63;;;5.80;51.80;;;;;;4945937;28;20707;-49
2023/03/16 01:02:09;;;;;;;10.05;4.57;;;5.80;51.80;;;;;;4944208;28;20087;-50
2023/03/16 01:04:36;;;;;;;8.75;4.05;;;5.80;51.90;;;;;;4944055;28;20062;-53
2023/03/16 01:07:04;;;;;;;7.40;4.13;;;5.70;51.90;;;;;;4942460;28;20070;-48
2023/03/16 01:09:35;;;;;;;8.45;3.83;;;5.70;51.90;;;;;;4945463;28;20062;-50
2023/03/16 01:12:05;;;;;;;8.52;4.28;;;5.70;51.90;;;;;;4942541;28;20055;-49
2023/03/16 01:14:34;;;;;;;5.72;3.42;;;5.70;51.90;;;;;;4945782;28;20073;-47
2023/03/16 01:17:03;;;;;;;11.05;4.07;;;5.70;51.90;;;;;;4942232;28;20141;-49
2023/03/16 01:19:32;;;;;;;6.90;3.83;;;5.70;52.00;;;;;;4944236;28;20054;-48
2023/03/16 01:22:00;;;;;;;8.85;4.10;;;5.70;52.10;;;;;;4942413;28;20408;-54
2023/03/16 01:24:28;;;;;;;7.13;3.67;;;5.70;52.00;;;;;;4943410;28;20059;-47
2023/03/16 01:26:55;;;;;;;8.15;3.50;;;5.70;52.10;;;;;;4943343;28;20059;-50
2023/03/16 01:29:22;;;;;;;11.32;4.07;;;5.70;52.10;;;;;;4944782;28;20063;-48
2023/03/16 01:31:50;;;;;;;10.02;4.55;;;5.70;52.20;;;;;;4943980;28;20512;-49
2023/03/16 01:34:18;;;;;;;9.50;3.92;;;5.70;52.20;;;;;;4944376;28;20058;-48
2023/03/16 01:36:47;;;;;;;9.75;4.28;;;5.70;52.20;;;;;;4944923;28;20051;-47
2023/03/16 01:39:15;;;;;;;11.85;4.38;;;5.70;52.30;;;;;;4942944;28;20063;-51
2023/03/16 01:41:43;;;;;;;15.32;4.50;;;5.80;52.20;;;;;;4943224;28;20412;-50
2023/03/16 01:44:13;;;;;;;8.32;4.25;;;5.80;52.20;;;;;;4943801;28;20055;-48
2023/03/16 01:46:43;;;;;;;8.85;4.15;;;5.80;52.10;;;;;;4948115;28;20062;-48
2023/03/16 01:49:13;;;;;;;12.77;4.53;;;5.70;52.10;;;;;;4948840;28;20070;-50
2023/03/16 01:51:45;;;;;;;6.47;3.97;;;5.80;52.10;;;;;;4948147;28;20521;-48
2023/03/16 01:54:20;;;;;;;7.32;3.72;;;5.80;52.10;;;;;;4947173;28;20066;-47
2023/03/16 01:56:55;;;;;;;9.07;4.30;;;5.80;52.10;;;;;;4946079;28;20059;-47
2023/03/16 01:59:27;;;;;;;7.32;3.78;;;5.80;52.10;;;;;;4946828;28;20070;-49
2023/03/16 02:01:55;;;;;;;10.35;4.28;;;5.80;52.10;;;;;;4946029;28;20067;-49
2023/03/16 02:04:49;;;;;;;10.77;4.38;;;5.80;52.10;;;;;;4946775;23;20063;-92
2023/03/16 02:07:20;;;;;;;10.80;4.40;;;5.80;52.00;;;;;;4942888;29;20059;-91
2023/03/16 02:09:51;;;;;;;11.20;4.47;;;5.90;52.10;;;;;;4944620;29;20486;-92
2023/03/16 02:12:20;;;;;;;9.32;4.32;;;5.90;52.00;;;;;;4948497;28;20050;-91
2023/03/16 02:14:48;;;;;;;9.85;4.35;;;5.80;51.90;;;;;;4942400;29;20055;-93
2023/03/16 02:17:19;;;;;;;11.35;4.65;;;5.80;52.40;;;;;;4943125;29;20078;-92
2023/03/16 02:19:57;;;;;;;12.70;4.78;;;5.80;51.90;;;;;;4941526;29;20066;-92
2023/03/16 02:22:26;;;;;;;11.38;4.50;;;5.80;51.80;;;;;;4941564;28;20062;-91
2023/03/16 02:24:54;;;;;;;9.50;4.30;;;5.80;51.80;;;;;;4949965;28;20047;-92
2023/03/16 02:27:30;;;;;;;10.38;4.03;;;5.80;51.80;;;;;;4938671;28;20060;-91
2023/03/16 02:30:04;;;;;;;8.65;4.40;;;5.80;51.80;;;;;;4949077;28;20059;-92
2023/03/16 02:32:32;;;;;;;7.35;3.78;;;5.80;51.80;;;;;;4943391;29;20406;-93
2023/03/16 02:35:01;;;;;;;9.65;3.17;;;5.80;51.80;;;;;;4941529;29;20047;-93
2023/03/16 02:37:28;;;;;;;5.82;3.40;;;5.80;51.80;;;;;;4937528;29;20426;-92
2023/03/16 02:39:56;;;;;;;13.65;4.03;;;5.80;51.70;;;;;;4942147;28;20495;-91
2023/03/16 02:42:26;;;;;;;10.02;3.75;;;5.80;51.70;;;;;;4942978;29;20495;-92
2023/03/16 02:44:57;;;;;;;11.93;3.67;;;5.80;51.70;;;;;;4943378;29;20063;-93
2023/03/16 02:47:35;;;;;;;9.75;4.60;;;5.80;51.70;;;;;;4946375;28;20067;-91
2023/03/16 02:50:05;;;;;;;4.00;2.72;;;5.80;51.60;;;;;;4941095;29;20597;-93
2023/03/16 02:52:34;;;;;;;7.93;3.45;;;5.80;51.60;;;;;;4941905;29;20051;-92
2023/03/16 02:55:01;;;;;;;7.65;3.55;;;5.80;51.60;;;;;;4939902;28;20153;-88
2023/03/16 02:57:28;;;;;;;6.20;3.13;;;5.80;51.60;;;;;;4947443;28;20062;-88
2023/03/16 02:59:55;;;;;;;6.60;3.75;;;5.80;51.60;;;;;;4943653;29;20055;-91
2023/03/16 03:02:23;;;;;;;10.10;3.28;;;5.80;51.60;;;;;;4949100;28;20059;-90
2023/03/16 03:04:53;;;;;;;9.68;3.33;;;5.80;51.60;;;;;;4938104;28;20051;-91
2023/03/16 03:07:31;;;;;;;4.75;3.25;;;5.80;51.50;;;;;;4943673;29;20062;-92
2023/03/16 03:09:58;;;;;;;6.00;2.72;;;5.80;51.50;;;;;;4941952;29;20063;-91
2023/03/16 03:12:25;;;;;;;4.78;2.60;;;5.80;51.50;;;;;;4942482;28;20082;-89
2023/03/16 03:14:53;;;;;;;4.88;2.90;;;5.80;51.60;;;;;;4949045;28;20396;-88
2023/03/16 03:17:20;;;;;;;8.73;3.47;;;5.80;51.60;;;;;;4948490;28;20078;-89
2023/03/16 03:19:47;;;;;;;6.80;3.15;;;5.80;51.70;;;;;;4939007;29;20051;-90
2023/03/16 03:22:17;;;;;;;8.40;3.65;;;5.80;51.60;;;;;;4943165;29;20058;-91
2023/03/16 03:24:45;;;;;;;7.63;2.97;;;5.80;51.60;;;;;;4938031;28;20062;-88
2023/03/16 03:27:12;;;;;;;6.45;3.45;;;5.80;51.50;;;;;;4942335;29;20058;-91
2023/03/16 03:29:39;;;;;;;9.15;3.20;;;5.80;51.50;;;;;;4942183;28;20063;-92
2023/03/16 03:32:08;;;;;;;11.65;3.40;;;5.80;51.50;;;;;;4943005;28;20054;-93
2023/03/16 03:34:35;;;;;;;8.00;3.22;;;5.80;51.40;;;;;;4939909;28;20546;-94
2023/03/16 03:37:02;;;;;;;9.23;3.08;;;5.80;51.40;;;;;;4942220;29;20059;-90
2023/03/16 03:39:31;;;;;;;9.40;3.72;;;5.70;51.40;;;;;;4939946;29;21317;-92
2023/03/16 03:41:58;;;;;;;8.30;3.22;;;5.70;51.40;;;;;;4946568;28;20063;-93
2023/03/16 03:44:25;;;;;;;8.23;2.83;;;5.70;51.40;;;;;;4942427;29;20059;-92
2023/03/16 03:46:53;;;;;;;4.82;2.83;;;5.70;51.50;;;;;;4942398;28;20051;-93
2023/03/16 03:49:20;;;;;;;9.82;3.65;;;5.70;51.50;;;;;;4939968;29;20066;-93
2023/03/16 03:51:47;;;;;;;11.68;3.15;;;5.70;51.50;;;;;;4941596;29;20484;-93
2023/03/16 03:54:14;;;;;;;10.52;3.30;;;5.70;51.50;;;;;;4942593;29;20372;-93
2023/03/16 03:56:43;;;;;;;4.72;2.88;;;5.70;52.00;;;;;;4947524;28;20797;-86
2023/03/16 03:59:10;;;;;;;8.00;3.50;;;5.80;51.60;;;;;;4939440;29;20390;-90
2023/03/16 04:01:38;;;;;;;5.32;3.10;;;5.70;51.50;;;;;;4939055;29;20055;-91
2023/03/16 04:04:05;;;;;;;11.02;3.70;;;5.70;51.50;;;;;;4940189;28;20074;-90
2023/03/16 04:06:32;;;;;;;8.25;3.50;;;5.70;51.40;;;;;;4946913;28;20504;-90
2023/03/16 04:08:59;;;;;;;7.05;3.47;;;5.70;51.50;;;;;;4939417;28;20491;-90
2023/03/16 04:11:27;;;;;;;7.93;3.60;;;5.70;51.50;;;;;;4941227;28;20070;-86
2023/03/16 04:13:55;;;;;;;6.15;3.67;;;5.70;51.60;;;;;;4940978;28;20055;-85
2023/03/16 04:16:25;;;;;;;12.40;4.38;;;5.70;51.60;;;;;;4941620;28;20422;-85
2023/03/16 04:18:53;;;;;;;9.02;4.40;;;5.70;51.60;;;;;;4940209;29;20069;-85
2023/03/16 04:21:21;;;;;;;8.38;3.80;;;5.70;51.60;;;;;;4937359;28;20063;-85
2023/03/16 04:23:49;;;;;;;10.15;4.22;;;5.70;51.60;;;;;;4940980;29;20066;-85
2023/03/16 04:26:16;;;;;;;8.95;3.90;;;5.70;51.60;;;;;;4938492;29;20047;-86
2023/03/16 04:28:44;;;;;;;10.43;5.10;;;5.70;51.60;;;;;;4939303;29;20051;-87
2023/03/16 04:31:12;;;;;;;12.35;5.13;;;5.70;51.60;;;;;;4935072;29;20055;-88
2023/03/16 04:33:41;;;;;;;6.05;4.40;;;5.70;51.60;;;;;;4939016;29;20051;-87
2023/03/16 04:36:08;;;;;;;9.02;4.65;;;5.70;51.70;;;;;;4940175;29;20051;-85
2023/03/16 04:38:36;;;;;;;10.77;4.45;;;5.70;51.70;;;;;;4940889;28;20078;-86
2023/03/16 04:41:05;;;;;;;6.90;4.28;;;5.70;51.80;;;;;;4937335;29;20055;-82
2023/03/16 04:43:33;;;;;;;10.82;5.30;;;5.70;51.80;;;;;;4938879;29;20043;-85
2023/03/16 04:46:00;;;;;;;9.68;4.53;;;5.70;51.80;;;;;;4939177;29;20066;-86
2023/03/16 04:48:29;;;;;;;9.15;4.65;;;5.70;51.80;;;;;;4938059;28;20066;-86
2023/03/16 04:50:56;;;;;;;8.25;4.80;;;5.70;51.80;;;;;;4939350;28;20055;-86
2023/03/16 04:53:24;;;;;;;10.13;4.72;;;5.70;51.90;;;;;;4942186;29;20051;-85
2023/03/16 04:55:51;;;;;;;10.63;5.50;;;5.70;51.90;;;;;;4942404;28;20071;-86
2023/03/16 04:58:18;;;;;;;11.73;5.45;;;5.70;51.90;;;;;;4941469;29;20063;-86
2023/03/16 05:00:46;;;;;;;14.05;5.03;;;5.80;52.00;;;;;;4940293;29;20420;-84
2023/03/16 05:03:15;;;;;;;8.82;5.10;;;5.70;52.00;;;;;;4940853;29;20070;-90
2023/03/16 05:05:44;;;;;;;13.60;5.00;;;5.70;52.00;;;;;;4940896;29;20067;-86
2023/03/16 05:08:11;;;;;;;10.55;5.40;;;5.80;52.10;;;;;;4940681;29;20063;-87
2023/03/16 05:10:39;;;;;;;9.45;5.35;;;5.70;52.20;;;;;;4937753;29;20046;-86
2023/03/16 05:13:07;;;;;;;10.30;5.43;;;5.70;52.20;;;;;;4945139;28;20058;-87
2023/03/16 05:15:34;;;;;;;35.88;14.50;;;5.70;52.20;;;;;;4940305;29;20500;-89
2023/03/16 05:18:01;;;;;;;46.05;18.63;;;5.70;52.30;;;;;;4938240;29;20840;-85
2023/03/16 05:20:28;;;;;;;20.08;8.57;;;5.70;52.50;;;;;;4946340;28;20282;-85
2023/03/16 05:22:57;;;;;;;12.70;6.30;;;5.70;52.40;;;;;;4943103;29;20070;-85
2023/03/16 05:25:24;;;;;;;11.90;6.07;;;5.80;52.50;;;;;;4949251;28;20054;-89
2023/03/16 05:27:53;;;;;;;9.13;5.03;;;5.80;52.50;;;;;;4942632;28;20054;-88
2023/03/16 05:30:21;;;;;;;9.13;5.10;;;5.80;52.50;;;;;;4943510;29;20491;-85
2023/03/16 05:32:48;;;;;;;12.32;5.97;;;5.80;52.50;;;;;;4950013;28;20071;-85
2023/03/16 05:35:15;;;;;;;11.32;6.18;;;5.80;52.50;;;;;;4942628;29;20051;-85
2023/03/16 05:37:43;;;;;;;8.60;5.10;;;5.80;52.60;;;;;;4941510;29;20043;-88
2023/03/16 05:40:16;;;;;;;11.32;6.07;;;5.90;52.70;;;;;;4943849;29;20533;-85
2023/03/16 05:42:45;;;;;;;10.32;6.25;;;5.80;52.70;;;;;;4942870;29;20058;-86
2023/03/16 05:45:13;;;;;;;12.00;6.00;;;5.90;52.70;;;;;;4942678;28;20617;-85
2023/03/16 05:47:42;;;;;;;12.60;5.70;;;5.90;52.70;;;;;;4944335;29;20391;-87
2023/03/16 05:50:11;;;;;;;14.75;6.80;;;5.90;52.70;;;;;;4950327;28;20068;-85
2023/03/16 05:52:39;;;;;;;14.82;7.60;;;5.90;52.70;;;;;;4960437;28;20521;-85
2023/03/16 05:55:08;;;;;;;40.28;17.55;;;5.90;52.80;;;;;;4961888;28;20054;-85
2023/03/16 05:57:37;;;;;;;12.70;7.07;;;5.90;52.80;;;;;;4960942;28;20050;-85
2023/03/16 06:00:11;;;;;;;14.48;6.50;;;6.00;53.00;;;;;;4967005;28;20740;-85
2023/03/16 06:02:38;;;;;;;11.20;6.38;;;6.00;52.90;;;;;;4960693;28;20055;-86
2023/03/16 06:05:07;;;;;;;11.70;6.40;;;6.00;53.00;;;;;;4959904;28;20403;-86
2023/03/16 06:07:35;;;;;;;12.55;5.95;;;6.00;53.50;;;;;;4960636;28;20057;-85
2023/03/16 06:10:03;;;;;;;14.30;6.60;;;6.10;53.00;;;;;;4963698;28;20065;-86
2023/03/16 06:12:31;;;;;;;10.85;6.30;;;6.00;53.00;;;;;;4961110;28;20058;-86
2023/03/16 06:14:59;;;;;;;12.73;6.18;;;6.10;53.00;;;;;;4962466;28;20089;-85
2023/03/16 06:17:27;;;;;;;11.73;6.47;;;6.10;53.50;;;;;;4960057;28;20065;-85
2023/03/16 06:19:54;;;;;;;13.02;6.57;;;6.10;53.10;;;;;;4963101;28;20495;-89
2023/03/16 06:22:22;;;;;;;14.55;6.25;;;6.10;53.10;;;;;;4960019;28;20506;-87
2023/03/16 06:24:50;;;;;;;11.73;6.50;;;6.10;53.00;;;;;;4962645;28;20414;-84
2023/03/16 06:27:19;;;;;;;13.40;6.93;;;6.10;53.00;;;;;;4961496;28;20050;-84
2023/03/16 06:29:46;;;;;;;13.85;7.03;;;6.20;53.10;;;;;;4960835;28;20403;-87
2023/03/16 06:32:15;;;;;;;17.30;7.53;;;6.20;53.60;;;;;;4959309;28;20421;-88
2023/03/16 06:34:42;;;;;;;12.95;6.68;;;6.20;53.10;;;;;;4961233;28;20054;-84
2023/03/16 06:37:10;;;;;;;12.05;7.03;;;6.20;53.10;;;;;;4957500;28;20718;-84
2023/03/16 06:39:37;;;;;;;15.63;6.65;;;6.20;53.10;;;;;;4965743;28;20051;-86
2023/03/16 06:42:04;;;;;;;11.18;6.47;;;6.20;53.10;;;;;;4960549;28;20059;-89
2023/03/16 06:44:32;;;;;;;10.25;6.57;;;6.30;53.20;;;;;;4962221;28;20065;-87
2023/03/16 06:46:59;;;;;;;12.73;7.32;;;6.30;53.20;;;;;;4961697;28;20055;-84
2023/03/16 06:49:28;;;;;;;10.88;6.22;;;6.30;53.20;;;;;;4961685;28;20055;-85
2023/03/16 06:51:57;;;;;;;14.60;6.78;;;6.40;53.30;;;;;;4960085;28;20065;-84
2023/03/16 06:54:24;;;;;;;12.35;7.13;;;6.40;53.30;;;;;;4959326;28;20435;-84
2023/03/16 06:56:51;;;;;;;15.70;7.85;;;6.40;53.30;;;;;;4960299;28;20077;-84
2023/03/16 06:59:19;;;;;;;16.98;7.65;;;6.50;53.40;;;;;;4958752;28;20521;-84
2023/03/16 07:01:46;;;;;;;15.45;7.72;;;6.50;53.40;;;;;;4959060;28;20063;-84
2023/03/16 07:04:13;;;;;;;13.48;7.00;;;6.50;53.40;;;;;;4960107;28;20073;-88
2023/03/16 07:06:42;;;;;;;14.55;8.35;;;6.50;53.50;;;;;;4962171;28;20061;-84
2023/03/16 07:09:09;;;;;;;14.15;7.45;;;6.60;53.60;;;;;;4962382;28;20484;-84
2023/03/16 07:11:36;;;;;;;12.88;7.30;;;6.60;53.50;;;;;;4959888;28;20051;-86
2023/03/16 07:14:04;;;;;;;14.50;7.78;;;6.70;53.50;;;;;;4959529;28;20475;-84
2023/03/16 07:16:31;;;;;;;12.15;7.65;;;6.70;53.50;;;;;;4961758;28;20061;-84
2023/03/16 07:18:59;;;;;;;12.00;7.55;;;6.70;53.50;;;;;;4966711;28;20074;-84
2023/03/16 07:21:26;;;;;;;20.17;8.68;;;6.80;53.50;;;;;;4958988;28;20051;-88
2023/03/16 07:23:55;;;;;;;12.63;7.38;;;6.80;53.50;;;;;;4959735;28;20063;-85
2023/03/16 07:26:22;;;;;;;11.63;7.28;;;6.80;53.40;;;;;;4961090;28;20521;-86
2023/03/16 07:28:50;;;;;;;13.27;7.93;;;6.90;53.30;;;;;;4961742;28;20495;-85
2023/03/16 07:31:17;;;;;;;13.05;7.28;;;6.90;53.40;;;;;;4959995;28;20415;-85
2023/03/16 07:33:45;;;;;;;13.00;7.50;;;6.90;53.30;;;;;;4958857;28;20066;-85
2023/03/16 07:36:12;;;;;;;15.15;8.77;;;6.90;53.40;;;;;;4962282;28;20438;-85
2023/03/16 07:38:40;;;;;;;12.55;7.78;;;7.00;53.40;;;;;;4960746;28;20051;-82
2023/03/16 07:41:09;;;;;;;13.98;7.95;;;7.00;53.40;;;;;;4957790;28;20058;-85
2023/03/16 07:43:36;;;;;;;12.77;7.70;;;7.00;53.30;;;;;;4959955;28;20054;-86
2023/03/16 07:46:04;;;;;;;13.63;7.88;;;7.10;53.40;;;;;;4962086;28;20059;-83
2023/03/16 07:48:31;;;;;;;14.32;8.10;;;7.10;53.40;;;;;;4939156;28;20050;-84
2023/03/16 07:50:58;;;;;;;12.65;7.80;;;7.10;53.50;;;;;;4959629;28;20510;-84
2023/03/16 07:53:26;;;;;;;16.45;7.35;;;7.20;53.60;;;;;;4957480;28;20073;-86
2023/03/16 07:55:53;;;;;;;12.73;7.75;;;7.20;53.50;;;;;;4964055;28;20503;-89
2023/03/16 07:58:21;;;;;;;10.13;7.00;;;7.30;53.60;;;;;;4960135;28;20058;-88
2023/03/16 08:00:49;;;;;;;14.20;7.75;;;7.40;53.60;;;;;;4958151;28;20057;-84
2023/03/16 08:03:16;;;;;;;17.67;9.93;;;7.40;53.60;;;;;;4956343;28;20055;-85
2023/03/16 08:05:43;;;;;;;21.75;11.18;;;7.50;53.60;;;;;;4956590;28;20059;-88
2023/03/16 08:08:11;;;;;;;18.40;8.95;;;7.60;53.60;;;;;;4953435;28;20051;-84
2023/03/16 08:10:38;;;;;;;14.90;8.65;;;7.60;53.50;;;;;;4955868;28;20086;-85
2023/03/16 08:13:05;;;;;;;13.95;8.30;;;7.60;53.40;;;;;;4957880;28;20058;-84
2023/03/16 08:15:34;;;;;;;11.40;7.20;;;7.70;53.30;;;;;;4957331;28;20062;-85
2023/03/16 08:18:02;;;;;;;13.90;8.02;;;7.70;53.30;;;;;;4952550;28;20059;-84
2023/03/16 08:20:30;;;;;;;16.95;8.77;;;7.80;53.40;;;;;;4954512;28;20050;-84
2023/03/16 08:22:57;;;;;;;12.77;7.43;;;7.90;53.20;;;;;;4950906;28;20368;-86
2023/03/16 08:25:25;;;;;;;12.68;7.72;;;7.90;53.10;;;;;;4958209;28;20062;-86
2023/03/16 08:27:52;;;;;;;11.38;7.13;;;8.00;53.20;;;;;;4955262;28;20066;-86
2023/03/16 08:30:21;;;;;;;10.77;7.07;;;8.00;53.10;;;;;;4955117;28;20066;-86
2023/03/16 08:32:50;;;;;;;13.38;8.02;;;8.10;53.00;;;;;;4955971;28;20055;-84
2023/03/16 08:35:17;;;;;;;10.70;7.07;;;8.10;53.00;;;;;;4957364;28;20427;-84
2023/03/16 08:37:46;;;;;;;13.02;7.63;;;8.20;52.90;;;;;;4957806;28;20051;-85
2023/03/16 08:40:15;;;;;;;12.15;7.90;;;8.20;52.70;;;;;;4959898;28;20054;-84
2023/03/16 08:42:43;;;;;;;13.35;7.57;;;8.30;52.70;;;;;;4959534;28;20262;-89
2023/03/16 08:45:12;;;;;;;24.23;12.52;;;8.20;52.50;;;;;;4957372;28;20816;-87
2023/03/16 08:47:39;;;;;;;15.05;8.52;;;8.40;52.60;;;;;;4957976;28;20486;-87
2023/03/16 08:50:11;;;;;;;14.05;8.23;;;8.40;52.60;;;;;;4956384;28;20134;-86
2023/03/16 08:52:39;;;;;;;13.18;7.97;;;8.50;52.50;;;;;;4954794;28;20619;-89
2023/03/16 08:55:09;;;;;;;18.40;9.23;;;8.50;52.40;;;;;;4955383;28;20051;-86
2023/03/16 08:57:38;;;;;;;15.63;8.45;;;8.50;52.40;;;;;;4957323;28;20058;-86
2023/03/16 09:00:12;;;;;;;16.27;8.18;;;8.60;52.30;;;;;;4956846;28;20055;-87
2023/03/16 09:02:40;;;;;;;18.60;7.78;;;8.60;52.30;;;;;;4959553;28;20054;-86
2023/03/16 09:08:28;;;;;;;12.20;7.25;;;8.70;52.10;;;;;;4922029;28;20058;-83
2023/03/16 09:11:01;;;;;;;12.85;7.28;;;8.80;52.00;;;;;;4957547;28;20066;-85
2023/03/16 09:13:32;;;;;;;13.38;7.22;;;8.90;51.80;;;;;;4968389;28;20055;-86
2023/03/16 09:26:14;;;;;;;12.52;6.85;;;9.10;51.10;;;;;;4979205;28;20038;-86
2023/03/16 09:28:46;;;;;;;12.27;7.07;;;9.10;51.00;;;;;;4955364;28;20359;-87
2023/03/16 09:34:39;;;;;;;10.07;6.35;;;9.20;51.10;;;;;;4979479;28;20038;-83
2023/03/16 09:38:01;;;;;;;14.05;6.85;;;9.30;51.10;;;;;;4970514;28;20066;-83
2023/03/16 09:40:34;;;;;;;10.43;6.93;;;9.30;51.00;;;;;;4960363;28;20058;-84
2023/03/16 09:46:34;;;;;;;15.27;7.78;;;9.50;51.10;;;;;;4959753;29;20044;-84
2023/03/16 09:49:05;;;;;;;10.00;6.47;;;9.50;51.00;;;;;;4956195;28;20422;-83
2023/03/16 09:51:43;;;;;;;10.20;6.43;;;9.60;51.00;;;;;;4966245;28;20055;-84
2023/03/16 10:01:17;;;;;;;12.20;6.05;;;9.80;50.50;;;;;;4935391;29;20043;-83
2023/03/16 10:03:57;;;;;;;;;;;9.90;50.70;;;;;;4917047;29;20460;-85
2023/03/16 10:06:25;;;;;;;14.25;6.13;;;10.00;50.90;;;;;;4918162;29;20298;-85
2023/03/16 10:08:58;;;;;;;10.35;5.28;;;10.00;50.60;;;;;;4922044;29;20063;-84
2023/03/16 10:11:30;;;;;;;9.55;5.38;;;10.10;50.40;;;;;;4919249;29;20047;-85
2023/03/16 10:14:03;;;;;;;10.90;5.63;;;10.10;50.20;;;;;;4925683;28;20056;-85
2023/03/16 10:16:36;;;;;;;10.48;5.82;;;10.20;50.20;;;;;;4921142;29;20503;-86
2023/03/16 10:19:12;;;;;;;11.80;5.75;;;10.20;50.00;;;;;;4922476;29;20055;-86
2023/03/16 10:21:42;;;;;;;8.45;4.90;;;10.30;49.80;;;;;;4920997;29;20268;-85
2023/03/16 10:24:24;;;;;;;9.98;5.13;;;10.40;49.90;;;;;;4921460;29;20080;-86
2023/03/16 10:26:58;;;;;;;18.95;7.22;;;10.40;49.50;;;;;;4919172;29;20452;-88
2023/03/16 10:29:28;;;;;;;7.55;5.05;;;10.50;49.60;;;;;;4962257;28;20395;-86
2023/03/16 10:31:59;;;;;;;10.05;5.70;;;10.50;49.50;;;;;;4961469;28;20059;-84
2023/03/16 10:34:29;;;;;;;9.18;5.70;;;10.60;49.50;;;;;;4962336;28;20051;-86
2023/03/16 10:36:56;;;;;;;7.90;4.70;;;10.60;49.40;;;;;;4958758;28;20394;-86
2023/03/16 10:39:24;;;;;;;8.88;4.50;;;10.60;49.30;;;;;;4961899;28;20066;-86
2023/03/16 10:41:56;;;;;;;8.02;4.88;;;10.60;49.10;;;;;;4958188;28;20523;-85
2023/03/16 10:44:25;;;;;;;8.05;5.03;;;10.70;49.10;;;;;;4962493;28;20062;-87
2023/03/16 10:47:00;;;;;;;9.15;5.20;;;10.70;49.10;;;;;;4961843;28;20058;-85
2023/03/16 10:49:35;;;;;;;8.32;4.15;;;10.70;49.00;;;;;;4962289;28;20061;-85
2023/03/16 10:52:13;;;;;;;8.77;4.22;;;10.80;49.20;;;;;;4960697;28;20074;-85
2023/03/16 10:54:48;;;;;;;7.38;4.00;;;10.80;49.00;;;;;;4961667;28;20057;-85
2023/03/16 10:57:24;;;;;;;8.93;3.97;;;10.80;48.90;;;;;;4961006;28;20055;-86
2023/03/16 10:59:53;;;;;;;7.38;4.40;;;10.90;48.80;;;;;;4961116;28;20065;-86
2023/03/16 11:02:25;;;;;;;8.55;4.30;;;10.90;49.40;;;;;;4961253;28;20050;-84
2023/03/16 11:04:54;;;;;;;6.18;4.15;;;10.90;48.80;;;;;;4960906;28;20066;-86
2023/03/16 11:07:23;;;;;;;7.13;4.30;;;10.90;48.70;;;;;;4959089;28;20050;-85
2023/03/16 11:09:51;;;;;;;9.70;4.45;;;11.00;48.80;;;;;;4960234;28;20050;-84
2023/03/16 11:12:26;;;;;;;6.75;3.88;;;11.10;49.10;;;;;;4961632;28;20062;-85
2023/03/16 11:14:54;;;;;;;5.97;3.92;;;11.10;49.20;;;;;;4959950;28;20499;-85
2023/03/16 11:17:28;;;;;;;9.23;4.40;;;11.20;49.20;;;;;;4959298;28;20061;-86
2023/03/16 11:20:04;;;;;;;9.48;4.18;;;11.30;48.70;;;;;;4960257;28;20355;-86
2023/03/16 11:22:32;;;;;;;10.93;4.03;;;11.30;48.70;;;;;;4957618;28;20062;-87
2023/03/16 11:25:09;;;;;;;7.25;3.78;;;11.40;48.50;;;;;;4957236;28;20054;-86
2023/03/16 11:27:42;;;;;;;8.73;4.13;;;11.50;48.30;;;;;;4960098;28;20050;-85
2023/03/16 11:30:16;;;;;;;13.43;4.35;;;11.50;48.30;;;;;;4962054;28;20386;-85
2023/03/16 11:32:49;;;;;;;8.25;3.90;;;11.60;47.80;;;;;;4955429;28;20134;-84
2023/03/16 11:35:20;;;;;;;6.53;3.63;;;11.70;47.90;;;;;;4955025;28;20081;-85
2023/03/16 11:38:11;;;;;;;6.13;3.45;;;11.70;47.60;;;;;;4954855;28;20046;-85
2023/03/16 11:40:52;;;;;;;7.45;3.85;;;11.80;47.20;;;;;;4956107;28;20591;-85
2023/03/16 11:43:46;;;;;;;8.05;3.30;;;11.80;47.40;;;;;;4957425;28;20054;-85
2023/03/16 11:46:17;;;;;;;9.33;3.17;;;11.90;47.40;;;;;;4965938;28;20379;-84
2023/03/16 11:48:52;;;;;;;10.23;3.38;;;11.90;47.20;;;;;;4957890;28;20043;-87
2023/03/16 11:51:36;;;;;;;12.05;2.97;;;12.00;47.20;;;;;;4955357;28;20066;-85
2023/03/16 11:54:28;;;;;;;4.22;2.75;;;12.00;46.40;;;;;;4958219;28;20066;-84
2023/03/16 11:57:00;;;;;;;4.47;2.92;;;12.10;46.60;;;;;;4957358;28;20067;-84
2023/03/16 11:59:40;;;;;;;6.10;3.10;;;12.10;46.90;;;;;;4958348;28;20046;-85
2023/03/16 12:02:32;;;;;;;8.52;2.85;;;12.20;47.00;;;;;;4959436;28;20057;-86
2023/03/16 12:05:22;;;;;;;13.90;5.72;;;12.20;46.60;;;;;;4956658;28;20062;-85
2023/03/16 12:08:03;;;;;;;13.15;7.38;;;12.30;46.30;;;;;;4956562;28;20066;-85
2023/03/16 12:10:40;;;;;;;9.40;3.58;;;12.30;46.20;;;;;;4953456;28;20066;-84
2023/03/16 12:13:32;;;;;;;6.97;3.70;;;12.40;45.70;;;;;;4956577;28;20055;-85
2023/03/16 12:16:05;;;;;;;4.95;2.50;;;12.40;45.40;;;;;;4957577;28;20054;-85
2023/03/16 12:18:40;;;;;;;5.47;2.50;;;12.40;45.40;;;;;;4956761;28;20047;-85
2023/03/16 12:21:14;;;;;;;4.05;2.60;;;12.50;45.40;;;;;;4954444;28;20270;-86
2023/03/16 12:23:58;;;;;;;7.43;2.60;;;12.50;45.50;;;;;;4961513;28;20083;-86
2023/03/16 12:26:29;;;;;;;8.40;3.45;;;12.60;45.40;;;;;;4951495;28;20062;-85
2023/03/16 12:28:59;;;;;;;15.73;7.93;;;12.60;45.40;;;;;;4950605;28;20059;-86
2023/03/16 12:31:37;;;;;;;17.70;6.88;;;12.60;45.30;;;;;;4957104;28;20054;-85
2023/03/16 12:34:16;;;;;;;21.10;9.02;;;12.60;45.10;;;;;;4951181;28;20051;-86
2023/03/16 12:37:05;;;;;;;20.25;9.95;;;12.70;45.40;;;;;;4954763;28;20065;-87
2023/03/16 12:40:06;;;;;;;11.50;5.75;;;12.70;45.00;;;;;;4958680;28;20055;-86
2023/03/16 12:42:49;;;;;;;27.48;7.43;;;12.70;44.60;;;;;;4957174;28;20735;-85
2023/03/16 12:45:24;;;;;;;10.75;4.55;;;12.70;45.10;;;;;;4960624;28;20065;-84
2023/03/16 12:48:01;;;;;;;11.55;4.40;;;12.80;45.20;;;;;;4954343;28;20561;-84
2023/03/16 12:50:33;;;;;;;16.65;6.15;;;12.80;45.10;;;;;;4954668;28;20381;-83
2023/03/16 12:53:02;;;;;;;9.77;3.17;;;12.80;45.00;;;;;;4954588;28;20051;-83
2023/03/16 12:55:57;;;;;;;5.85;2.95;;;12.90;45.00;;;;;;4956593;28;20430;-82
2023/03/16 12:58:30;;;;;;;6.28;2.55;;;12.90;44.70;;;;;;4956344;28;20088;-83
2023/03/16 13:01:02;;;;;;;7.63;3.63;;;12.90;44.60;;;;;;4956831;28;20394;-82
2023/03/16 13:03:30;;;;;;;11.10;3.58;;;13.00;44.60;;;;;;4958892;28;20054;-83
2023/03/16 13:05:59;;;;;;;4.15;2.20;;;13.00;44.50;;;;;;4959769;28;20058;-83
2023/03/16 13:08:27;;;;;;;6.03;2.40;;;13.00;44.30;;;;;;4958097;28;20059;-83
2023/03/16 13:11:04;;;;;;;5.78;2.38;;;13.10;44.70;;;;;;4959091;28;20055;-83
2023/03/16 13:13:33;;;;;;;5.97;2.22;;;13.10;44.90;;;;;;4959366;28;20055;-85
2023/03/16 13:16:08;;;;;;;4.30;2.13;;;13.10;44.70;;;;;;4959405;28;20050;-82
2023/03/16 13:18:40;;;;;;;6.00;2.83;;;13.20;44.00;;;;;;4959364;28;20050;-85
2023/03/16 13:21:17;;;;;;;8.75;3.00;;;13.20;43.60;;;;;;4959066;28;20046;-83
2023/03/16 13:23:54;;;;;;;7.07;3.50;;;13.20;43.40;;;;;;4959759;28;20081;-84
2023/03/16 13:26:38;;;;;;;5.95;2.75;;;13.30;43.20;;;;;;4958535;28;20054;-83
2023/03/16 13:29:19;;;;;;;4.10;2.63;;;13.30;43.90;;;;;;4959955;28;20062;-85
2023/03/16 13:31:47;;;;;;;5.88;2.78;;;13.30;43.40;;;;;;4959797;28;20514;-82